createdAt,value
2017-03-28T00:00:19.107Z,48.3
2017-03-28T00:00:59.626Z,47.82
2017-03-28T00:01:40.156Z,48.39
2017-03-28T00:02:20.794Z,48.3
2017-03-28T00:03:01.285Z,48.3
2017-03-28T00:03:41.812Z,47.92
2017-03-28T00:04:22.315Z,48.59
2017-03-28T00:05:02.855Z,48.37
2017-03-28T00:05:43.378Z,48.75
2017-03-28T00:06:23.886Z,48.59
2017-03-28T00:07:04.388Z,48.59
2017-03-28T00:07:44.889Z,48.78
2017-03-28T00:08:25.417Z,48.78
2017-03-28T00:09:05.930Z,49.33
2017-03-28T00:09:46.439Z,49.42
2017-03-28T00:10:26.961Z,49.71
2017-03-28T00:11:07.483Z,49.8
2017-03-28T00:11:47.987Z,49.9
2017-03-28T00:12:28.500Z,49.71
2017-03-28T00:13:09.016Z,49.8
2017-03-28T00:13:49.517Z,49.9
2017-03-28T00:14:30.031Z,50.76
2017-03-28T00:15:10.549Z,50.67
2017-03-28T00:15:51.074Z,50.67
2017-03-28T00:16:31.582Z,50.57
2017-03-28T00:17:12.102Z,50.95
2017-03-28T00:17:52.614Z,51.14
2017-03-28T00:18:33.128Z,51.33
2017-03-28T00:19:13.667Z,51.43
2017-03-28T00:19:54.178Z,51.14
2017-03-28T00:20:34.705Z,51.33
2017-03-28T00:21:15.221Z,51.23
2017-03-28T00:21:55.740Z,51.14
2017-03-28T00:22:36.261Z,50.95
2017-03-28T00:23:16.781Z,50.95
2017-03-28T00:23:57.306Z,50.76
2017-03-28T00:24:37.806Z,50.47
2017-03-28T00:25:18.331Z,50.38
2017-03-28T00:25:58.846Z,50.76
2017-03-28T00:26:39.376Z,49.99
2017-03-28T00:27:19.904Z,49.8
2017-03-28T00:28:00.442Z,49.9
2017-03-28T00:28:41.005Z,49.62
2017-03-28T00:29:21.525Z,49.93
2017-03-28T00:30:02.047Z,49.52
2017-03-28T00:30:42.571Z,49.8
2017-03-28T00:31:23.084Z,49.71
2017-03-28T00:32:03.586Z,49.8
2017-03-28T00:32:44.135Z,49.8
2017-03-28T00:33:24.642Z,49.23
2017-03-28T00:34:05.146Z,49.8
2017-03-28T00:34:45.671Z,49.8
2017-03-28T00:35:26.197Z,50.09
2017-03-28T00:36:06.721Z,50.28
2017-03-28T00:36:47.247Z,50.18
2017-03-28T00:37:27.766Z,50.67
2017-03-28T00:38:08.275Z,50.67
2017-03-28T00:38:48.793Z,50.57
2017-03-28T00:39:29.318Z,50.95
2017-03-28T00:40:09.835Z,51.04
2017-03-28T00:40:50.363Z,50.57
2017-03-28T00:41:30.875Z,50.76
2017-03-28T00:42:11.397Z,50.47
2017-03-28T00:42:51.925Z,50.47
2017-03-28T00:43:32.424Z,50.38
2017-03-28T00:44:12.959Z,49.99
2017-03-28T00:44:53.470Z,50.18
2017-03-28T00:45:33.993Z,50.09
2017-03-28T00:46:14.561Z,50.18
2017-03-28T00:46:55.089Z,49.99
2017-03-28T00:47:35.595Z,49.8
2017-03-28T00:48:16.125Z,49.8
2017-03-28T00:48:56.641Z,49.8
2017-03-28T00:49:37.175Z,49.9
2017-03-28T00:50:17.707Z,49.9
2017-03-28T00:50:58.230Z,50.09
2017-03-28T00:51:38.740Z,49.99
2017-03-28T00:52:19.266Z,50.18
2017-03-28T00:52:59.792Z,49.99
2017-03-28T00:53:40.310Z,49.9
2017-03-28T00:54:20.831Z,49.9
2017-03-28T00:55:01.336Z,49.9
2017-03-28T00:55:41.843Z,49.71
2017-03-28T00:56:22.373Z,49.99
2017-03-28T00:57:02.893Z,49.99
2017-03-28T00:57:43.429Z,50.28
2017-03-28T00:58:23.924Z,50.38
2017-03-28T00:59:04.457Z,50.76
2017-03-28T00:59:44.983Z,50.57
2017-03-28T01:00:25.490Z,50.67
2017-03-28T01:01:06.017Z,50.28
2017-03-28T01:01:46.541Z,50.47
2017-03-28T01:02:27.097Z,50.76
2017-03-28T01:03:07.613Z,49.99
2017-03-28T01:03:48.122Z,49.9
2017-03-28T01:04:28.636Z,49.87
2017-03-28T01:05:09.149Z,50.83
2017-03-28T01:05:49.647Z,50.73
2017-03-28T01:06:30.150Z,50.85
2017-03-28T01:07:10.662Z,50.85
2017-03-28T01:07:51.196Z,50.95
2017-03-28T01:08:31.742Z,51.04
2017-03-28T01:09:12.256Z,50.92
2017-03-28T01:09:52.786Z,50.83
2017-03-28T01:10:33.309Z,51.02
2017-03-28T01:11:13.830Z,51.23
2017-03-28T01:11:54.350Z,51.04
2017-03-28T01:12:34.861Z,51.14
2017-03-28T01:13:15.379Z,51.43
2017-03-28T01:13:55.904Z,51.62
2017-03-28T01:14:36.401Z,51.23
2017-03-28T01:15:16.918Z,50.95
2017-03-28T01:15:57.441Z,51.23
2017-03-28T01:16:37.950Z,51.23
2017-03-28T01:17:18.472Z,50.95
2017-03-28T01:17:58.989Z,50.85
2017-03-28T01:18:39.493Z,51.04
2017-03-28T01:19:20.017Z,51.04
2017-03-28T01:20:00.544Z,50.95
2017-03-28T01:20:41.097Z,51.14
2017-03-28T01:21:21.622Z,50.95
2017-03-28T01:22:02.150Z,50.76
2017-03-28T01:22:42.673Z,51.23
2017-03-28T01:23:23.180Z,51.59
2017-03-28T01:24:03.707Z,51.97
2017-03-28T01:24:44.235Z,51.59
2017-03-28T01:25:24.779Z,51.78
2017-03-28T01:26:05.278Z,51.88
2017-03-28T01:26:45.776Z,52.07
2017-03-28T01:27:26.276Z,51.78
2017-03-28T01:28:06.799Z,51.68
2017-03-28T01:28:47.322Z,51.78
2017-03-28T01:29:27.846Z,51.78
2017-03-28T01:30:08.367Z,51.97
2017-03-28T01:30:48.884Z,51.88
2017-03-28T01:31:29.414Z,51.88
2017-03-28T01:32:09.927Z,51.97
2017-03-28T01:32:50.443Z,52.36
2017-03-28T01:33:30.968Z,51.97
2017-03-28T01:34:11.481Z,51.68
2017-03-28T01:34:51.995Z,51.97
2017-03-28T01:35:32.517Z,52.07
2017-03-28T01:36:13.061Z,51.4
2017-03-28T01:36:53.567Z,51.4
2017-03-28T01:37:34.095Z,51.4
2017-03-28T01:38:14.606Z,51.12
2017-03-28T01:38:55.146Z,51.5
2017-03-28T01:39:35.665Z,52.16
2017-03-28T01:40:16.183Z,52.07
2017-03-28T01:40:56.683Z,52.16
2017-03-28T01:41:37.190Z,51.59
2017-03-28T01:42:17.717Z,51.12
2017-03-28T01:42:58.261Z,51.4
2017-03-28T01:43:38.731Z,51.59
2017-03-28T01:44:19.265Z,51.68
2017-03-28T01:44:59.788Z,51.78
2017-03-28T01:45:40.304Z,51.5
2017-03-28T01:46:20.818Z,51.59
2017-03-28T01:47:01.332Z,52.55
2017-03-28T01:47:41.850Z,52.83
2017-03-28T01:48:22.365Z,52.64
2017-03-28T01:49:02.892Z,53.12
2017-03-28T01:49:43.412Z,53.02
2017-03-28T01:50:23.932Z,53.09
2017-03-28T01:51:04.488Z,53.69
2017-03-28T01:51:44.954Z,53.69
2017-03-28T01:52:25.470Z,53.69
2017-03-28T01:53:05.993Z,53.41
2017-03-28T01:53:46.517Z,52.92
2017-03-28T01:54:27.041Z,52.92
2017-03-28T01:55:07.566Z,53.02
2017-03-28T01:55:48.072Z,53.02
2017-03-28T01:56:28.581Z,53.21
2017-03-28T01:57:09.080Z,53.66
2017-03-28T01:57:49.600Z,53.95
2017-03-28T01:58:30.076Z,53.88
2017-03-28T01:59:10.608Z,54.14
2017-03-28T01:59:51.134Z,53.76
2017-03-28T02:00:31.637Z,53.76
2017-03-28T02:01:12.167Z,54.14
2017-03-28T02:01:52.696Z,53.95
2017-03-28T02:02:33.214Z,54.17
2017-03-28T02:03:13.715Z,53.59
2017-03-28T02:03:54.229Z,53.97
2017-03-28T02:04:34.731Z,53.97
2017-03-28T02:05:15.245Z,53.97
2017-03-28T02:05:55.761Z,54.14
2017-03-28T02:06:36.254Z,54.26
2017-03-28T02:07:16.761Z,54.17
2017-03-28T02:07:57.269Z,54.64
2017-03-28T02:08:37.782Z,54.61
2017-03-28T02:09:18.293Z,55
2017-03-28T02:09:58.806Z,55.19
2017-03-28T02:10:39.315Z,55.19
2017-03-28T02:11:19.802Z,55.21
2017-03-28T02:12:00.331Z,55.21
2017-03-28T02:12:40.843Z,55.21
2017-03-28T02:13:21.373Z,54.74
2017-03-28T02:14:01.888Z,54.93
2017-03-28T02:14:42.404Z,55.02
2017-03-28T02:15:22.934Z,54.55
2017-03-28T02:16:03.440Z,54.45
2017-03-28T02:16:43.948Z,54.55
2017-03-28T02:17:24.463Z,54.93
2017-03-28T02:18:04.982Z,55.31
2017-03-28T02:18:45.491Z,55.12
2017-03-28T02:19:26.012Z,55.31
2017-03-28T02:20:06.531Z,55.12
2017-03-28T02:20:47.048Z,55.31
2017-03-28T02:21:27.569Z,55.21
2017-03-28T02:22:08.089Z,55.21
2017-03-28T02:22:48.623Z,55.02
2017-03-28T02:23:29.141Z,54.93
2017-03-28T02:24:09.664Z,55.19
2017-03-28T02:24:50.172Z,55.19
2017-03-28T02:25:30.703Z,54.9
2017-03-28T02:26:11.224Z,55.28
2017-03-28T02:26:51.741Z,55.28
2017-03-28T02:27:32.251Z,55.66
2017-03-28T02:28:12.787Z,55.09
2017-03-28T02:28:53.295Z,55.85
2017-03-28T02:29:33.815Z,56.04
2017-03-28T02:30:14.333Z,56.43
2017-03-28T02:30:54.867Z,55.85
2017-03-28T02:31:35.388Z,56.33
2017-03-28T02:32:15.913Z,55.95
2017-03-28T02:32:56.428Z,56.04
2017-03-28T02:33:36.952Z,55.85
2017-03-28T02:34:17.461Z,56.33
2017-03-28T02:34:57.969Z,56.33
2017-03-28T02:35:38.452Z,55.66
2017-03-28T02:36:18.959Z,55.85
2017-03-28T02:36:59.484Z,55.66
2017-03-28T02:37:40.008Z,55.66
2017-03-28T02:38:20.532Z,55.66
2017-03-28T02:39:01.047Z,55.85
2017-03-28T02:39:41.568Z,56.24
2017-03-28T02:40:22.087Z,56.04
2017-03-28T02:41:02.587Z,55.85
2017-03-28T02:41:43.110Z,55.57
2017-03-28T02:42:23.633Z,55.47
2017-03-28T02:43:04.161Z,55.95
2017-03-28T02:43:44.690Z,55.95
2017-03-28T02:44:25.210Z,55.47
2017-03-28T02:45:05.719Z,55.95
2017-03-28T02:45:46.252Z,55.95
2017-03-28T02:46:26.784Z,55.85
2017-03-28T02:47:07.431Z,55.47
2017-03-28T02:47:47.967Z,55.76
2017-03-28T02:48:28.508Z,55.76
2017-03-28T02:49:09.003Z,56.4
2017-03-28T02:49:49.525Z,56.81
2017-03-28T02:50:30.051Z,57
2017-03-28T02:51:10.570Z,56.9
2017-03-28T02:51:51.085Z,56.9
2017-03-28T02:52:31.606Z,56.9
2017-03-28T02:53:12.117Z,57.19
2017-03-28T02:53:52.639Z,56.71
2017-03-28T02:54:33.169Z,56.62
2017-03-28T02:55:13.688Z,57.19
2017-03-28T02:55:54.228Z,56.62
2017-03-28T02:56:34.756Z,56.14
2017-03-28T02:57:15.275Z,56.4
2017-03-28T02:57:55.765Z,56.97
2017-03-28T02:58:36.301Z,56.71
2017-03-28T02:59:16.815Z,56.62
2017-03-28T02:59:57.359Z,56.4
2017-03-28T03:00:37.869Z,56.49
2017-03-28T03:01:18.377Z,56.71
2017-03-28T03:01:58.895Z,56.59
2017-03-28T03:02:39.444Z,56.59
2017-03-28T03:03:19.963Z,56.78
2017-03-28T03:04:00.503Z,56.87
2017-03-28T03:04:41.024Z,56.81
2017-03-28T03:05:21.542Z,57.07
2017-03-28T03:06:02.063Z,56.97
2017-03-28T03:06:42.565Z,56.78
2017-03-28T03:07:23.085Z,56.78
2017-03-28T03:08:03.593Z,56.68
2017-03-28T03:08:44.113Z,56.59
2017-03-28T03:09:24.620Z,57.26
2017-03-28T03:10:05.144Z,56.87
2017-03-28T03:10:45.666Z,56.78
2017-03-28T03:11:26.186Z,56.78
2017-03-28T03:12:06.705Z,57.26
2017-03-28T03:12:47.205Z,57.16
2017-03-28T03:13:27.720Z,57.26
2017-03-28T03:14:08.227Z,57.26
2017-03-28T03:14:48.735Z,57.35
2017-03-28T03:15:29.241Z,57.16
2017-03-28T03:16:09.745Z,57.26
2017-03-28T03:16:50.258Z,57.45
2017-03-28T03:17:30.767Z,56.97
2017-03-28T03:18:11.287Z,57.35
2017-03-28T03:18:51.810Z,57.35
2017-03-28T03:19:32.319Z,57.26
2017-03-28T03:20:12.843Z,57.16
2017-03-28T03:20:53.355Z,57.35
2017-03-28T03:21:33.882Z,56.97
2017-03-28T03:22:14.399Z,57.26
2017-03-28T03:22:54.938Z,57.26
2017-03-28T03:23:35.456Z,56.87
2017-03-28T03:24:15.969Z,57.07
2017-03-28T03:24:56.494Z,56.97
2017-03-28T03:25:37.013Z,57.26
2017-03-28T03:26:17.544Z,57.07
2017-03-28T03:26:58.072Z,57.35
2017-03-28T03:27:38.574Z,57.26
2017-03-28T03:28:19.091Z,56.87
2017-03-28T03:28:59.608Z,57.07
2017-03-28T03:29:40.130Z,57.07
2017-03-28T03:30:20.650Z,57.26
2017-03-28T03:31:01.171Z,56.68
2017-03-28T03:31:41.701Z,56.59
2017-03-28T03:32:22.227Z,56.68
2017-03-28T03:33:02.753Z,56.59
2017-03-28T03:33:43.276Z,56.97
2017-03-28T03:34:23.792Z,56.68
2017-03-28T03:35:04.309Z,56.52
2017-03-28T03:35:44.832Z,56.49
2017-03-28T03:36:25.361Z,56.3
2017-03-28T03:37:05.904Z,56.4
2017-03-28T03:38:53.905Z,56.59
2017-03-28T03:39:34.429Z,56.49
2017-03-28T03:40:14.955Z,56.68
2017-03-28T03:40:55.496Z,57.26
2017-03-28T03:41:35.997Z,56.97
2017-03-28T03:42:16.529Z,57.35
2017-03-28T03:42:57.049Z,57.54
2017-03-28T03:43:37.559Z,57.82
2017-03-28T03:44:18.088Z,58.5
2017-03-28T03:44:58.605Z,58.5
2017-03-28T03:45:39.141Z,58.5
2017-03-28T03:46:19.663Z,58.4
2017-03-28T03:47:00.183Z,58.78
2017-03-28T03:47:40.710Z,58.69
2017-03-28T03:48:21.229Z,58.87
2017-03-28T03:49:01.742Z,59.35
2017-03-28T03:49:42.253Z,59.45
2017-03-28T03:50:22.768Z,59.92
2017-03-28T03:51:03.283Z,59.83
2017-03-28T03:51:43.812Z,60.02
2017-03-28T03:52:24.327Z,60.3
2017-03-28T03:53:04.846Z,60.69
2017-03-28T03:53:45.369Z,60.78
2017-03-28T03:54:25.915Z,60.3
2017-03-28T03:55:06.447Z,61.07
2017-03-28T03:55:46.997Z,61.07
2017-03-28T03:56:27.509Z,61.54
2017-03-28T03:57:08.011Z,61.35
2017-03-28T03:57:48.574Z,61.25
2017-03-28T03:58:29.063Z,61.73
2017-03-28T03:59:09.573Z,61.73
2017-03-28T03:59:50.085Z,61.93
2017-03-28T04:00:30.595Z,61.73
2017-03-28T04:01:11.100Z,62.21
2017-03-28T04:01:51.621Z,62.3
2017-03-28T04:02:32.122Z,62.02
2017-03-28T04:03:12.652Z,62.02
2017-03-28T04:03:53.161Z,62.4
2017-03-28T04:04:33.683Z,62.68
2017-03-28T04:05:14.257Z,62.59
2017-03-28T04:05:54.745Z,62.78
2017-03-28T04:06:35.269Z,62.59
2017-03-28T04:07:15.779Z,62.59
2017-03-28T04:07:56.309Z,62.88
2017-03-28T04:08:36.825Z,62.59
2017-03-28T04:09:17.341Z,62.81
2017-03-28T04:09:57.864Z,62.68
2017-03-28T04:10:38.391Z,62.59
2017-03-28T04:11:18.882Z,63.26
2017-03-28T04:11:59.397Z,63.26
2017-03-28T04:12:39.894Z,62.68
2017-03-28T04:13:20.392Z,62.62
2017-03-28T04:14:00.913Z,62.62
2017-03-28T04:14:41.424Z,62.72
2017-03-28T04:15:21.951Z,62.62
2017-03-28T04:16:02.466Z,62.34
2017-03-28T04:16:43.033Z,62.49
2017-03-28T04:17:23.552Z,62.49
2017-03-28T04:18:04.085Z,62.59
2017-03-28T04:18:44.589Z,62.62
2017-03-28T04:19:25.094Z,62.88
2017-03-28T04:20:05.607Z,62.78
2017-03-28T04:20:46.124Z,63.26
2017-03-28T04:21:26.651Z,63.07
2017-03-28T04:22:07.149Z,63.07
2017-03-28T04:22:47.640Z,63.07
2017-03-28T04:23:28.167Z,63.45
2017-03-28T04:24:08.685Z,63.35
2017-03-28T04:24:49.240Z,63.54
2017-03-28T04:25:29.764Z,63.26
2017-03-28T04:26:10.286Z,63.64
2017-03-28T04:26:50.843Z,63.17
2017-03-28T04:27:31.377Z,63.17
2017-03-28T04:28:11.890Z,63.64
2017-03-28T04:28:52.413Z,63.54
2017-03-28T04:29:32.926Z,63.64
2017-03-28T04:30:13.462Z,63.92
2017-03-28T04:30:53.974Z,63.73
2017-03-28T04:31:34.482Z,63.64
2017-03-28T04:32:15.004Z,63.92
2017-03-28T04:32:55.521Z,64.02
2017-03-28T04:33:36.036Z,63.45
2017-03-28T04:34:16.551Z,64.02
2017-03-28T04:34:57.075Z,63.83
2017-03-28T04:35:37.594Z,64.5
2017-03-28T04:36:18.108Z,64.12
2017-03-28T04:36:58.668Z,63.92
2017-03-28T04:37:39.159Z,63.64
2017-03-28T04:38:19.685Z,64.12
2017-03-28T04:39:00.226Z,64.31
2017-03-28T04:39:40.737Z,64.5
2017-03-28T04:40:21.270Z,64.31
2017-03-28T04:41:01.792Z,64.31
2017-03-28T04:41:42.307Z,63.83
2017-03-28T04:42:22.815Z,64.69
2017-03-28T04:43:03.344Z,64.5
2017-03-28T04:43:43.922Z,64.12
2017-03-28T04:44:24.406Z,64.4
2017-03-28T04:45:04.914Z,64.02
2017-03-28T04:45:45.428Z,63.67
2017-03-28T04:46:25.944Z,63.64
2017-03-28T04:47:06.448Z,64.02
2017-03-28T04:47:46.972Z,63.96
2017-03-28T04:48:27.485Z,64.21
2017-03-28T04:49:08.020Z,64.5
2017-03-28T04:49:48.519Z,64.12
2017-03-28T04:50:29.042Z,64.12
2017-03-28T04:51:09.563Z,64.12
2017-03-28T04:51:50.078Z,63.45
2017-03-28T04:52:30.577Z,63.83
2017-03-28T04:53:11.105Z,64.31
2017-03-28T04:53:51.615Z,64.02
2017-03-28T04:54:32.124Z,64.12
2017-03-28T04:55:12.678Z,64.4
2017-03-28T04:55:53.217Z,63.83
2017-03-28T04:56:33.720Z,63.64
2017-03-28T04:57:14.227Z,63.45
2017-03-28T04:57:54.736Z,63.86
2017-03-28T04:58:35.254Z,63.67
2017-03-28T04:59:15.758Z,63.67
2017-03-28T04:59:56.279Z,63.67
2017-03-28T05:00:36.773Z,63.86
2017-03-28T05:01:17.291Z,63.96
2017-03-28T05:01:57.803Z,63.48
2017-03-28T05:02:38.308Z,63.29
2017-03-28T05:03:18.823Z,62.52
2017-03-28T05:03:59.334Z,62.81
2017-03-28T05:04:39.855Z,62.62
2017-03-28T05:05:20.370Z,62.62
2017-03-28T05:06:00.874Z,62.62
2017-03-28T05:06:41.371Z,62.91
2017-03-28T05:07:21.888Z,62.62
2017-03-28T05:08:02.408Z,62.91
2017-03-28T05:08:42.921Z,62.72
2017-03-28T05:09:23.425Z,63
2017-03-28T05:10:03.951Z,63
2017-03-28T05:10:44.463Z,62.81
2017-03-28T05:11:24.985Z,62.81
2017-03-28T05:13:12.970Z,62.91
2017-03-28T05:13:53.475Z,62.62
2017-03-28T05:14:33.990Z,62.62
2017-03-28T05:15:14.513Z,62.65
2017-03-28T05:15:55.011Z,62.34
2017-03-28T05:16:35.536Z,62.37
2017-03-28T05:17:16.052Z,62.37
2017-03-28T05:17:56.573Z,62.18
2017-03-28T05:18:37.087Z,62.34
2017-03-28T05:19:17.604Z,62.27
2017-03-28T05:19:58.126Z,62.81
2017-03-28T05:20:38.623Z,62.65
2017-03-28T05:21:19.124Z,63.04
2017-03-28T05:21:59.650Z,63.42
2017-03-28T05:22:40.157Z,63.7
2017-03-28T05:23:20.676Z,64.18
2017-03-28T05:24:01.148Z,64.85
2017-03-28T05:24:41.640Z,63.89
2017-03-28T05:25:22.181Z,64.18
2017-03-28T05:26:02.733Z,63.99
2017-03-28T05:26:43.205Z,63.7
2017-03-28T05:27:23.690Z,63.7
2017-03-28T05:28:04.187Z,63.7
2017-03-28T05:28:44.695Z,63.8
2017-03-28T05:29:25.190Z,62.94
2017-03-28T05:30:05.703Z,62.65
2017-03-28T05:30:46.221Z,62.56
2017-03-28T05:31:26.728Z,62.84
2017-03-28T05:32:07.221Z,62.56
2017-03-28T05:32:47.737Z,62.75
2017-03-28T05:33:28.246Z,63.32
2017-03-28T05:34:08.769Z,63.51
2017-03-28T05:34:49.280Z,65.13
2017-03-28T05:35:29.756Z,63.99
2017-03-28T05:36:10.240Z,64.09
2017-03-28T05:36:50.748Z,65.17
2017-03-28T05:37:31.271Z,66.12
2017-03-28T05:38:11.765Z,65.93
2017-03-28T05:38:52.281Z,65.83
2017-03-28T05:39:32.777Z,66.31
2017-03-28T05:40:13.298Z,66.12
2017-03-28T05:40:53.791Z,64.88
2017-03-28T05:41:34.305Z,69.37
2017-03-28T05:42:14.811Z,79.19
2017-03-28T05:42:55.337Z,81.48
2017-03-28T05:43:35.867Z,80.57
2017-03-28T05:44:16.342Z,80.43
2017-03-28T05:44:56.865Z,79.57
2017-03-28T05:45:37.359Z,77.19
2017-03-28T05:46:17.824Z,75.76
2017-03-28T05:46:58.460Z,76.71
2017-03-28T05:47:38.871Z,75.76
2017-03-28T05:48:19.416Z,68.98
2017-03-28T05:48:59.866Z,66.12
2017-03-28T05:49:40.539Z,64.31
2017-03-28T05:50:20.967Z,62.4
2017-03-28T05:51:01.444Z,62.4
2017-03-28T05:51:41.942Z,62.59
2017-03-28T05:52:22.406Z,62.4
2017-03-28T05:53:02.929Z,62.11
2017-03-28T05:53:43.396Z,61.25
2017-03-28T05:54:23.931Z,61.44
2017-03-28T05:55:04.422Z,61.73
2017-03-28T05:55:44.908Z,61.92
2017-03-28T05:56:25.393Z,60.87
2017-03-28T05:57:05.897Z,60.58
2017-03-28T05:57:46.374Z,59.82
2017-03-28T05:58:26.876Z,59.92
2017-03-28T05:59:07.376Z,60.3
2017-03-28T05:59:47.906Z,59.25
2017-03-28T06:00:28.426Z,60.58
2017-03-28T06:01:08.946Z,60.49
2017-03-28T06:01:49.484Z,61.1
2017-03-28T06:02:29.943Z,61.38
2017-03-28T06:03:10.449Z,60.71
2017-03-28T06:03:50.965Z,59.95
2017-03-28T06:04:31.482Z,58.61
2017-03-28T06:05:11.963Z,58.48
2017-03-28T06:05:52.470Z,58.48
2017-03-28T06:06:32.989Z,59.06
2017-03-28T06:07:13.504Z,59.47
2017-03-28T06:07:54.010Z,59.47
2017-03-28T06:08:34.559Z,59.95
2017-03-28T06:09:15.064Z,59.66
2017-03-28T06:09:55.642Z,61.19
2017-03-28T06:10:36.031Z,60.71
2017-03-28T06:11:16.531Z,61.29
2017-03-28T06:11:56.984Z,61.47
2017-03-28T06:12:37.486Z,60.42
2017-03-28T06:13:17.966Z,60.42
2017-03-28T06:13:58.456Z,65.33
2017-03-28T06:14:38.977Z,78.31
2017-03-28T06:15:19.492Z,83.28
2017-03-28T06:16:00.007Z,86.34
2017-03-28T06:16:40.535Z,89.15
2017-03-28T06:17:21.027Z,87.82
2017-03-28T06:18:01.562Z,86.57
2017-03-28T06:18:42.074Z,88.01
2017-03-28T06:19:22.549Z,86
2017-03-28T06:20:03.039Z,86.67
2017-03-28T06:22:01.295Z,91.78
2017-03-28T06:22:41.806Z,90.73
2017-03-28T06:23:22.338Z,90.73
2017-03-28T06:24:02.829Z,91.39
2017-03-28T06:24:43.343Z,88.24
2017-03-28T06:25:23.854Z,88.05
2017-03-28T06:26:04.391Z,90.82
2017-03-28T06:26:44.911Z,85.18
2017-03-28T06:27:25.456Z,87.86
2017-03-28T06:28:05.984Z,87
2017-03-28T06:28:46.553Z,81.26
2017-03-28T06:29:27.085Z,80.5
2017-03-28T06:30:07.593Z,82.03
2017-03-28T06:30:48.114Z,84.99
2017-03-28T06:31:28.618Z,85.28
2017-03-28T06:32:09.140Z,84.23
2017-03-28T06:32:49.656Z,83.17
2017-03-28T06:33:30.187Z,82.51
2017-03-28T06:34:10.691Z,86.61
2017-03-28T06:34:51.213Z,87.86
2017-03-28T06:35:31.758Z,81.26
2017-03-28T06:36:12.246Z,76.2
2017-03-28T06:36:52.759Z,76.86
2017-03-28T06:37:33.279Z,78.11
2017-03-28T06:38:13.775Z,77.25
2017-03-28T06:38:54.296Z,75.78
2017-03-28T06:39:34.809Z,75.78
2017-03-28T06:40:15.324Z,75.68
2017-03-28T06:40:55.813Z,74.05
2017-03-28T06:41:36.363Z,72.24
2017-03-28T06:42:16.834Z,69.56
2017-03-28T06:42:57.312Z,71.19
2017-03-28T06:43:37.837Z,72.72
2017-03-28T06:44:18.296Z,72.91
2017-03-28T06:44:58.995Z,71.95
2017-03-28T06:45:39.499Z,73.77
2017-03-28T06:46:19.969Z,75.49
2017-03-28T06:47:00.521Z,73.67
2017-03-28T06:47:40.981Z,72.62
2017-03-28T06:48:21.495Z,73.29
2017-03-28T06:49:01.987Z,68.61
2017-03-28T06:49:42.455Z,68.51
2017-03-28T06:50:22.961Z,68.32
2017-03-28T06:51:03.472Z,68.9
2017-03-28T06:51:43.943Z,64.12
2017-03-28T06:52:24.432Z,62.59
2017-03-28T06:53:04.928Z,62.59
2017-03-28T06:53:45.446Z,66.03
2017-03-28T06:54:25.929Z,63.64
2017-03-28T06:55:06.386Z,62.78
2017-03-28T06:55:46.860Z,65.84
2017-03-28T06:56:27.358Z,67.75
2017-03-28T06:57:07.875Z,64.02
2017-03-28T06:57:48.416Z,63.16
2017-03-28T06:58:28.888Z,65.17
2017-03-28T06:59:09.387Z,69.85
2017-03-28T06:59:49.891Z,70.33
2017-03-28T07:00:30.398Z,64.78
2017-03-28T07:01:10.891Z,68.7
2017-03-28T07:01:51.396Z,64.02
2017-03-28T07:02:31.875Z,73.96
2017-03-28T07:03:12.367Z,80.59
2017-03-28T07:03:52.814Z,78.11
2017-03-28T07:04:33.365Z,75.43
2017-03-28T07:05:13.845Z,78.26
2017-03-28T07:05:54.373Z,80.69
2017-03-28T07:06:34.871Z,76.1
2017-03-28T07:07:15.374Z,73.04
2017-03-28T07:07:55.886Z,75.05
2017-03-28T07:08:36.396Z,79.2
2017-03-28T07:09:16.900Z,74.8
2017-03-28T07:09:57.431Z,78.43
2017-03-28T07:10:37.955Z,80.63
2017-03-28T07:11:18.480Z,80.06
2017-03-28T07:11:58.992Z,75.95
2017-03-28T07:12:39.493Z,71.16
2017-03-28T07:13:20.002Z,63.42
2017-03-28T07:14:00.540Z,69.44
2017-03-28T07:14:41.088Z,73.08
2017-03-28T07:15:21.583Z,65.04
2017-03-28T07:16:02.140Z,68.29
2017-03-28T07:16:42.673Z,71.68
2017-03-28T07:17:23.197Z,73.97
2017-03-28T07:18:03.715Z,71.01
2017-03-28T07:18:44.241Z,65.33
2017-03-28T07:19:24.783Z,62.68
2017-03-28T07:20:05.267Z,64.98
2017-03-28T07:20:45.795Z,64.88
2017-03-28T07:21:26.329Z,62.97
2017-03-28T07:22:06.844Z,63.23
2017-03-28T07:22:47.360Z,62.74
2017-03-28T07:23:27.872Z,62.74
2017-03-28T07:24:08.379Z,61.15
2017-03-28T07:24:48.910Z,61.34
2017-03-28T07:25:29.473Z,61.54
2017-03-28T07:26:09.954Z,61.31
2017-03-28T07:26:50.476Z,61.34
2017-03-28T07:27:30.987Z,62.4
2017-03-28T07:28:11.513Z,60.58
2017-03-28T07:28:51.993Z,59.23
2017-03-28T07:29:32.493Z,60.96
2017-03-28T07:30:13.034Z,59.52
2017-03-28T07:30:53.526Z,60.77
2017-03-28T07:31:34.012Z,61.05
2017-03-28T07:32:14.537Z,61.34
2017-03-28T07:34:02.036Z,61.54
2017-03-28T07:34:42.567Z,60.48
2017-03-28T07:35:23.104Z,59.91
2017-03-28T07:36:03.618Z,60.48
2017-03-28T07:36:44.120Z,60.67
2017-03-28T07:37:24.632Z,62.3
2017-03-28T07:38:05.145Z,63.93
2017-03-28T07:38:45.673Z,62.2
2017-03-28T07:39:26.188Z,61.05
2017-03-28T07:40:06.704Z,61.63
2017-03-28T07:40:47.283Z,62.97
2017-03-28T07:41:27.764Z,63.26
2017-03-28T07:42:08.277Z,64.02
2017-03-28T07:42:48.761Z,62.87
2017-03-28T07:43:29.244Z,66.83
2017-03-28T07:44:09.729Z,69.03
2017-03-28T07:44:50.218Z,71.71
2017-03-28T07:45:30.701Z,72
2017-03-28T07:46:11.210Z,72.16
2017-03-28T07:46:51.666Z,67.5
2017-03-28T07:47:32.160Z,69.51
2017-03-28T07:48:12.654Z,70.95
2017-03-28T07:48:53.108Z,69.32
2017-03-28T07:49:33.631Z,69.99
2017-03-28T07:50:14.097Z,73.34
2017-03-28T07:50:54.599Z,74.11
2017-03-28T07:51:35.105Z,73.05
2017-03-28T07:52:15.608Z,74.87
2017-03-28T07:52:56.099Z,72.38
2017-03-28T07:53:36.628Z,74.2
2017-03-28T07:54:17.178Z,67.69
2017-03-28T07:54:57.634Z,68.07
2017-03-28T07:55:38.094Z,70.09
2017-03-28T07:56:18.713Z,72.29
2017-03-28T07:56:59.184Z,74.97
2017-03-28T07:57:39.664Z,69.13
2017-03-28T07:58:20.143Z,70.85
2017-03-28T07:59:00.744Z,69.93
2017-03-28T07:59:41.195Z,66.06
2017-03-28T08:00:21.729Z,61.28
2017-03-28T08:01:02.180Z,61.98
2017-03-28T08:01:42.674Z,65.05
2017-03-28T08:02:23.151Z,71.66
2017-03-28T08:03:03.674Z,73.09
2017-03-28T08:03:44.176Z,75.2
2017-03-28T08:04:24.674Z,73.63
2017-03-28T08:05:05.192Z,72.42
2017-03-28T08:05:45.668Z,76.02
2017-03-28T08:06:26.175Z,74.33
2017-03-28T08:07:06.699Z,65.05
2017-03-28T08:07:47.183Z,67.91
2017-03-28T08:08:27.688Z,71.75
2017-03-28T08:09:08.155Z,69.13
2017-03-28T08:09:48.656Z,66.64
2017-03-28T08:10:29.148Z,62.62
2017-03-28T08:11:09.677Z,61.5
2017-03-28T08:11:50.158Z,61.76
2017-03-28T08:12:30.609Z,63.86
2017-03-28T08:13:11.193Z,63.76
2017-03-28T08:13:51.751Z,60.93
2017-03-28T08:14:32.164Z,62.65
2017-03-28T08:15:12.643Z,61.6
2017-03-28T08:15:53.193Z,59.58
2017-03-28T08:16:33.643Z,59.39
2017-03-28T08:17:14.157Z,61.6
2017-03-28T08:17:54.637Z,62.71
2017-03-28T08:18:35.156Z,62.46
2017-03-28T08:19:15.650Z,64.09
2017-03-28T08:19:56.149Z,62.84
2017-03-28T08:20:36.655Z,66
2017-03-28T08:21:17.151Z,63.51
2017-03-28T08:21:57.597Z,62.93
2017-03-28T08:22:38.148Z,62.07
2017-03-28T08:23:18.636Z,66.19
2017-03-28T08:23:59.152Z,67.38
2017-03-28T08:24:39.630Z,67.63
2017-03-28T08:25:20.158Z,68.68
2017-03-28T08:26:00.675Z,64.66
2017-03-28T08:26:41.162Z,68.21
2017-03-28T08:27:21.852Z,71.08
2017-03-28T08:28:02.107Z,68.05
2017-03-28T08:28:42.590Z,71.11
2017-03-28T08:29:23.156Z,72.55
2017-03-28T08:30:03.605Z,70.44
2017-03-28T08:30:44.310Z,64.4
2017-03-28T08:31:24.815Z,61.63
2017-03-28T08:32:05.268Z,62.1
2017-03-28T08:32:45.885Z,60.67
2017-03-28T08:33:26.439Z,59.83
2017-03-28T08:34:06.888Z,64.53
2017-03-28T08:34:47.375Z,65.59
2017-03-28T08:35:27.846Z,67.76
2017-03-28T08:36:08.380Z,68.05
2017-03-28T08:36:48.886Z,69.96
2017-03-28T08:37:29.406Z,67.28
2017-03-28T08:38:09.855Z,64.79
2017-03-28T08:38:50.397Z,65.65
2017-03-28T08:39:30.900Z,68.08
2017-03-28T08:40:11.356Z,69.71
2017-03-28T08:40:51.861Z,66.93
2017-03-28T08:41:32.361Z,62.39
2017-03-28T08:42:12.826Z,66.26
2017-03-28T08:42:53.352Z,65.2
2017-03-28T08:43:33.820Z,60.99
2017-03-28T08:44:14.268Z,56.67
2017-03-28T08:44:54.797Z,59.83
2017-03-28T08:45:35.290Z,67.69
2017-03-28T08:46:15.767Z,62.81
2017-03-28T08:46:56.258Z,62.81
2017-03-28T08:47:36.793Z,63.29
2017-03-28T08:48:17.267Z,64.72
2017-03-28T08:48:57.799Z,63.19